createdAt,value
2022-09-06T00:01:11.659Z,10.13
2022-09-06T00:03:40.647Z,10.70
2022-09-06T00:06:14.780Z,10.40
2022-09-06T00:08:45.343Z,10.35
2022-09-06T00:11:14.122Z,10.38
2022-09-06T00:13:42.532Z,10.57
2022-09-06T00:16:14.601Z,11.05
2022-09-06T00:18:43.187Z,10.15
2022-09-06T00:21:19.184Z,9.40
2022-09-06T00:23:47.649Z,10.60
2022-09-06T00:26:16.414Z,10.10
2022-09-06T00:28:44.965Z,10.35
2022-09-06T00:31:15.564Z,10.45
2022-09-06T00:33:44.592Z,9.80
2022-09-06T00:36:15.409Z,9.48
2022-09-06T00:38:44.070Z,10.27
2022-09-06T00:41:15.700Z,9.30
2022-09-06T00:43:44.522Z,10.23
2022-09-06T00:46:18.963Z,10.07
2022-09-06T00:48:50.760Z,9.63
2022-09-06T00:51:25.449Z,10.63
2022-09-06T00:53:53.882Z,10.25
2022-09-06T00:56:22.571Z,10.30
2022-09-06T00:58:51.403Z,9.50
2022-09-06T01:01:19.795Z,10.05
2022-09-06T01:03:48.074Z,10.07
2022-09-06T01:06:29.213Z,10.13
2022-09-06T01:09:11.329Z,9.70
2022-09-06T01:12:05.773Z,10.02
2022-09-06T01:14:52.468Z,10.45
2022-09-06T01:17:34.508Z,10.18
2022-09-06T01:20:33.444Z,10.23
2022-09-06T01:24:04.369Z,10.30
2022-09-06T01:27:36.125Z,9.98
2022-09-06T01:30:09.455Z,10.48
2022-09-06T01:32:54.706Z,10.82
2022-09-06T01:35:34.424Z,10.02
2022-09-06T01:38:03.783Z,10.73
2022-09-06T01:40:35.666Z,10.38
2022-09-06T01:43:10.216Z,9.70
2022-09-06T01:45:58.119Z,10.32
2022-09-06T01:48:48.381Z,9.85
2022-09-06T01:51:27.497Z,9.35
2022-09-06T01:54:27.687Z,9.60
2022-09-06T01:57:14.527Z,11.80
2022-09-06T02:00:02.869Z,9.48
2022-09-06T02:02:46.864Z,9.32
2022-09-06T02:05:24.385Z,9.68
2022-09-06T02:07:59.087Z,11.40
2022-09-06T02:10:35.043Z,9.98
2022-09-06T02:13:07.386Z,9.95
2022-09-06T02:15:39.572Z,10.38
2022-09-06T02:18:17.101Z,10.40
2022-09-06T02:20:52.654Z,9.98
2022-09-06T02:23:27.409Z,9.68
2022-09-06T02:26:02.595Z,9.80
2022-09-06T02:28:30.798Z,10.02
2022-09-06T02:31:04.857Z,9.30
2022-09-06T02:33:35.904Z,9.77
2022-09-06T02:36:09.598Z,10.57
2022-09-06T02:38:41.460Z,10.25
2022-09-06T02:41:10.761Z,9.63
2022-09-06T02:43:38.841Z,10.32
2022-09-06T02:46:07.219Z,9.15
2022-09-06T02:48:36.745Z,10.35
2022-09-06T02:51:05.686Z,10.68
2022-09-06T02:53:34.199Z,10.18
2022-09-06T02:56:03.414Z,10.02
2022-09-06T02:58:31.445Z,10.27
2022-09-06T03:00:59.691Z,10.07
2022-09-06T03:03:28.507Z,9.43
2022-09-06T03:05:57.977Z,9.98
2022-09-06T03:08:29.261Z,9.82
2022-09-06T03:10:58.136Z,9.73
2022-09-06T03:13:27.040Z,10.63
2022-09-06T03:15:57.705Z,9.65
2022-09-06T03:18:27.308Z,10.93
2022-09-06T03:20:58.058Z,9.70
2022-09-06T03:23:28.509Z,10.32
2022-09-06T03:25:57.236Z,11.02
2022-09-06T03:28:25.744Z,10.30
2022-09-06T03:30:54.792Z,10.95
2022-09-06T03:33:23.021Z,9.98
2022-09-06T03:35:53.949Z,11.00
2022-09-06T03:38:24.636Z,10.60
2022-09-06T03:40:53.209Z,10.75
2022-09-06T03:43:23.460Z,10.68
2022-09-06T03:45:54.772Z,10.88
2022-09-06T03:48:25.350Z,10.48
2022-09-06T03:50:57.803Z,9.77
2022-09-06T03:53:29.055Z,12.90
2022-09-06T03:55:58.615Z,10.68
2022-09-06T03:58:31.168Z,10.45
2022-09-06T04:01:07.995Z,10.52
2022-09-06T04:03:37.032Z,10.57
2022-09-06T04:06:06.821Z,10.85
2022-09-06T04:08:38.137Z,10.25
2022-09-06T04:11:07.271Z,11.15
2022-09-06T04:13:36.719Z,10.85
2022-09-06T04:16:06.335Z,10.63
2022-09-06T04:18:34.804Z,10.55
2022-09-06T04:21:02.982Z,10.23
2022-09-06T04:23:33.475Z,10.50
2022-09-06T04:26:04.831Z,11.25
2022-09-06T04:28:33.079Z,11.18
2022-09-06T04:31:05.140Z,10.85
2022-09-06T04:33:36.396Z,10.80
2022-09-06T04:36:08.185Z,10.90
2022-09-06T04:38:39.174Z,12.40
2022-09-06T04:41:10.901Z,11.07
2022-09-06T04:43:39.114Z,10.32
2022-09-06T04:46:10.627Z,10.73
2022-09-06T04:48:38.729Z,12.98
2022-09-06T04:51:07.261Z,10.32
2022-09-06T04:53:35.334Z,9.88
2022-09-06T04:56:04.108Z,10.82
2022-09-06T04:58:33.694Z,9.93
2022-09-06T05:01:01.777Z,9.57
2022-09-06T05:03:29.813Z,9.60
2022-09-06T05:06:10.003Z,9.32
2022-09-06T05:08:39.526Z,9.43
2022-09-06T05:11:08.839Z,9.73
2022-09-06T05:13:39.283Z,9.52
2022-09-06T05:16:09.912Z,9.88
2022-09-06T05:18:38.044Z,9.80
2022-09-06T05:21:07.561Z,9.70
2022-09-06T05:23:35.595Z,9.73
2022-09-06T05:26:03.727Z,9.32
2022-09-06T05:28:31.991Z,9.73
2022-09-06T05:31:09.890Z,10.00
2022-09-06T05:33:38.831Z,10.13
2022-09-06T05:36:08.622Z,9.65
2022-09-06T05:38:36.672Z,9.55
2022-09-06T05:41:04.819Z,9.90
2022-09-06T05:43:32.836Z,10.30
2022-09-06T05:46:01.031Z,9.98
2022-09-06T05:48:36.091Z,9.98
2022-09-06T05:51:08.256Z,10.38
2022-09-06T05:53:37.035Z,10.90
2022-09-06T05:56:06.674Z,9.75
2022-09-06T05:58:34.748Z,10.48
2022-09-06T06:01:08.887Z,10.57
2022-09-06T06:03:38.956Z,10.55
2022-09-06T06:06:07.685Z,10.02
2022-09-06T06:08:36.829Z,10.10
2022-09-06T06:11:04.988Z,10.35
2022-09-06T06:13:35.000Z,9.93
2022-09-06T06:16:04.408Z,11.45
2022-09-06T06:18:32.566Z,10.43
2022-09-06T06:21:14.186Z,9.88
2022-09-06T06:23:44.317Z,10.60
2022-09-06T06:26:14.026Z,9.98
2022-09-06T06:28:42.344Z,9.38
2022-09-06T06:31:13.052Z,9.82
2022-09-06T06:33:41.676Z,9.55
2022-09-06T06:36:24.376Z,9.35
2022-09-06T06:38:55.202Z,9.55
2022-09-06T06:41:25.764Z,9.90
2022-09-06T06:43:54.521Z,9.90
2022-09-06T06:46:24.958Z,10.32
2022-09-06T06:48:55.258Z,9.88
2022-09-06T06:51:28.287Z,9.55
2022-09-06T06:53:57.803Z,9.82
2022-09-06T06:56:28.823Z,12.18
2022-09-06T06:58:59.625Z,9.95
2022-09-06T07:01:30.575Z,9.63
2022-09-06T07:04:00.436Z,9.75
2022-09-06T07:09:21.152Z,10.75
2022-09-06T07:11:49.910Z,9.45
2022-09-06T07:14:19.086Z,13.15
2022-09-06T07:16:47.219Z,9.70
2022-09-06T07:22:05.882Z,11.10
2022-09-06T07:24:34.878Z,9.52
2022-09-06T07:29:51.010Z,9.93
2022-09-06T07:32:19.003Z,9.32
2022-09-06T07:34:47.169Z,9.80
2022-09-06T07:37:16.676Z,10.30
2022-09-06T07:39:44.755Z,11.40
2022-09-06T07:42:12.767Z,9.93
2022-09-06T07:44:40.799Z,10.00
2022-09-06T07:55:35.718Z,9.20
2022-09-06T07:58:03.744Z,10.32
2022-09-06T08:00:31.889Z,10.65
2022-09-06T08:03:00.257Z,10.10
2022-09-06T08:11:07.499Z,11.43
2022-09-06T08:13:36.382Z,9.93
2022-09-06T08:16:07.092Z,9.77
2022-09-06T08:18:36.500Z,9.57
2022-09-06T08:21:12.734Z,11.30
2022-09-06T08:23:47.212Z,10.30
2022-09-06T08:26:16.097Z,10.20
2022-09-06T08:28:44.395Z,9.80
2022-09-06T08:31:14.770Z,10.10
2022-09-06T08:33:44.017Z,10.77
2022-09-06T08:36:12.751Z,9.65
2022-09-06T08:38:42.460Z,9.95
2022-09-06T08:41:20.101Z,10.50
2022-09-06T08:46:53.155Z,11.10
2022-09-06T08:49:21.751Z,10.25
2022-09-06T08:52:19.049Z,10.98
2022-09-06T08:54:56.454Z,11.77
2022-09-06T08:57:46.588Z,11.00
2022-09-06T09:00:15.467Z,10.77
2022-09-06T09:02:52.146Z,11.25
2022-09-06T09:05:30.896Z,11.02
2022-09-06T09:08:14.584Z,11.05
2022-09-06T09:10:49.954Z,16.05
2022-09-06T09:13:30.683Z,12.23
2022-09-06T09:15:59.593Z,11.75
2022-09-06T09:18:33.465Z,12.55
2022-09-06T09:21:01.739Z,11.75
2022-09-06T09:23:31.885Z,12.73
2022-09-06T09:26:07.059Z,12.77
2022-09-06T09:28:35.824Z,14.55
2022-09-06T09:31:04.674Z,12.27
2022-09-06T09:33:36.947Z,11.45
2022-09-06T09:36:12.032Z,13.43
2022-09-06T09:38:45.343Z,11.85
2022-09-06T09:41:30.221Z,11.15
2022-09-06T09:44:04.751Z,11.48
2022-09-06T09:46:35.860Z,11.10
2022-09-06T09:49:11.411Z,11.88
2022-09-06T09:51:42.100Z,10.98
2022-09-06T09:54:12.950Z,12.80
2022-09-06T09:56:49.136Z,10.98
2022-09-06T09:59:26.850Z,9.88
2022-09-06T10:02:00.021Z,10.57
2022-09-06T10:07:18.524Z,10.60
2022-09-06T10:09:49.948Z,10.25
2022-09-06T10:12:29.883Z,10.80
2022-09-06T10:15:00.209Z,10.38
2022-09-06T10:17:34.106Z,9.88
2022-09-06T10:20:09.147Z,9.38
2022-09-06T10:22:52.714Z,9.80
2022-09-06T10:25:49.004Z,9.88
2022-09-06T10:28:38.918Z,8.82
2022-09-06T10:31:47.430Z,9.07
2022-09-06T10:34:57.824Z,8.85
2022-09-06T10:37:45.799Z,9.18
2022-09-06T10:40:30.265Z,11.18
2022-09-06T10:43:01.870Z,10.52
2022-09-06T10:45:46.764Z,12.32
2022-09-06T10:48:25.028Z,8.77
2022-09-06T10:50:58.579Z,8.57
2022-09-06T10:53:36.710Z,8.73
2022-09-06T10:56:11.775Z,8.57
2022-09-06T11:01:47.246Z,9.18
2022-09-06T11:04:24.684Z,8.45
2022-09-06T11:06:58.476Z,7.85
2022-09-06T11:09:35.905Z,7.88
2022-09-06T11:12:10.897Z,8.18
2022-09-06T11:14:40.382Z,7.57
2022-09-06T11:17:14.950Z,8.52
2022-09-06T11:19:52.990Z,8.45
2022-09-06T11:22:59.558Z,7.80
2022-09-06T11:25:55.125Z,8.38
2022-09-06T11:28:34.815Z,9.27
2022-09-06T11:31:04.814Z,8.35
2022-09-06T11:33:39.719Z,10.23
2022-09-06T11:36:20.551Z,8.20
2022-09-06T11:39:01.042Z,7.85
2022-09-06T11:41:33.755Z,8.65
2022-09-06T11:44:02.689Z,10.30
2022-09-06T11:47:02.964Z,8.52
2022-09-06T11:49:41.768Z,8.43
2022-09-06T11:53:00.823Z,10.05
2022-09-06T11:55:38.645Z,9.07
2022-09-06T11:58:20.551Z,8.10
2022-09-06T12:01:40.808Z,8.80
2022-09-06T12:04:11.718Z,8.95
2022-09-06T12:06:44.169Z,8.30
2022-09-06T12:09:33.758Z,8.13
2022-09-06T12:12:04.163Z,8.93
2022-09-06T12:14:39.637Z,8.93
2022-09-06T12:17:47.554Z,9.98
2022-09-06T12:21:06.909Z,7.97
2022-09-06T12:23:45.353Z,9.88
2022-09-06T12:26:13.887Z,8.88
2022-09-06T12:28:48.336Z,8.70
2022-09-06T12:31:39.543Z,9.98
2022-09-06T12:34:14.171Z,8.70
2022-09-06T12:36:59.089Z,7.18
2022-09-06T12:39:29.187Z,7.07
2022-09-06T12:42:02.008Z,6.40
2022-09-06T12:44:35.130Z,6.22
2022-09-06T12:47:14.944Z,5.68
2022-09-06T12:49:43.177Z,5.15
2022-09-06T12:52:16.071Z,5.57
2022-09-06T12:54:49.514Z,6.57
2022-09-06T12:57:22.457Z,6.10
2022-09-06T12:59:55.995Z,5.47
2022-09-06T13:02:38.683Z,5.07
2022-09-06T13:05:11.072Z,4.78
2022-09-06T13:07:45.310Z,3.95
2022-09-06T13:10:20.335Z,4.50
2022-09-06T13:12:53.003Z,3.08
2022-09-06T13:15:26.137Z,2.83
2022-09-06T13:17:56.621Z,2.95
2022-09-06T13:20:29.225Z,3.00
2022-09-06T13:23:10.925Z,3.22
2022-09-06T13:25:50.667Z,2.83
2022-09-06T13:28:28.145Z,2.80
2022-09-06T13:31:10.583Z,3.20
2022-09-06T13:33:39.091Z,2.65
2022-09-06T13:36:22.724Z,3.42
2022-09-06T13:38:51.687Z,3.33
2022-09-06T13:41:42.259Z,4.13
2022-09-06T13:44:29.622Z,4.40
2022-09-06T13:46:58.110Z,10.70
2022-09-06T13:49:27.206Z,5.43
2022-09-06T13:52:00.198Z,3.85
2022-09-06T13:54:28.596Z,3.50
2022-09-06T13:56:58.450Z,3.70
2022-09-06T13:59:26.972Z,5.18
2022-09-06T14:02:02.304Z,4.03
2022-09-06T14:04:31.831Z,4.35
2022-09-06T14:07:00.259Z,5.70
2022-09-06T14:09:28.272Z,6.78
2022-09-06T14:11:58.119Z,6.13
2022-09-06T14:14:26.376Z,5.70
2022-09-06T14:16:54.813Z,5.75
2022-09-06T14:19:23.180Z,6.18
2022-09-06T14:21:51.673Z,5.80
2022-09-06T14:24:20.141Z,7.90
2022-09-06T14:26:48.773Z,6.78
2022-09-06T14:29:18.293Z,7.40
2022-09-06T14:31:48.297Z,7.65
2022-09-06T14:34:16.686Z,8.07
2022-09-06T14:36:44.825Z,8.70
2022-09-06T14:39:12.908Z,7.93
2022-09-06T14:41:41.134Z,8.57
2022-09-06T14:44:10.020Z,8.80
2022-09-06T14:46:39.710Z,8.43
2022-09-06T14:49:11.134Z,8.90
2022-09-06T14:51:40.623Z,8.35
2022-09-06T14:54:12.216Z,8.10
2022-09-06T14:56:44.085Z,8.13
2022-09-06T14:59:12.826Z,9.10
2022-09-06T15:01:42.445Z,10.25
2022-09-06T15:04:12.413Z,9.38
2022-09-06T15:06:44.868Z,8.50
2022-09-06T15:09:13.122Z,9.18
2022-09-06T15:11:44.562Z,8.73
2022-09-06T15:14:17.520Z,8.50
2022-09-06T15:16:53.309Z,8.85
2022-09-06T15:19:24.782Z,7.53
2022-09-06T15:21:53.071Z,7.80
2022-09-06T15:24:21.779Z,6.60
2022-09-06T15:26:50.262Z,6.93
2022-09-06T15:29:19.180Z,6.68
2022-09-06T15:31:51.373Z,7.07
2022-09-06T15:34:21.582Z,7.88
2022-09-06T15:36:50.292Z,7.78
2022-09-06T15:39:18.914Z,10.07
2022-09-06T15:41:47.247Z,8.02
2022-09-06T15:44:18.760Z,7.55
2022-09-06T15:46:52.374Z,7.85
2022-09-06T15:49:27.616Z,7.60
2022-09-06T15:51:58.117Z,8.35
2022-09-06T15:54:47.954Z,8.23
2022-09-06T15:57:17.578Z,6.95
2022-09-06T15:59:46.529Z,7.05
2022-09-06T16:02:16.184Z,7.20
2022-09-06T16:04:44.392Z,7.07
2022-09-06T16:07:12.730Z,7.05
2022-09-06T16:09:40.910Z,7.18
2022-09-06T16:12:09.548Z,6.60
2022-09-06T16:14:39.043Z,7.28
2022-09-06T16:17:07.244Z,7.68
2022-09-06T16:19:36.716Z,6.78
2022-09-06T16:22:05.321Z,6.90
2022-09-06T16:24:33.660Z,6.57
2022-09-06T16:27:02.219Z,7.32
2022-09-06T16:29:31.768Z,7.68
2022-09-06T16:32:00.549Z,7.72
2022-09-06T16:34:28.747Z,8.23
2022-09-06T16:36:58.416Z,7.68
2022-09-06T16:39:26.953Z,8.15
2022-09-06T16:41:55.313Z,6.60
2022-09-06T16:44:23.352Z,7.45
2022-09-06T16:46:53.619Z,7.10
2022-09-06T16:49:21.796Z,7.72
2022-09-06T16:51:51.799Z,6.95
2022-09-06T16:54:21.686Z,7.05
2022-09-06T16:56:49.892Z,7.15
2022-09-06T16:59:18.061Z,7.80
2022-09-06T17:01:46.802Z,7.40
2022-09-06T17:04:16.227Z,6.85
2022-09-06T17:06:45.708Z,6.65
2022-09-06T17:09:16.306Z,6.60
2022-09-06T17:11:46.841Z,7.43
2022-09-06T17:14:14.965Z,6.03
2022-09-06T17:17:00.780Z,6.10
2022-09-06T17:19:29.698Z,6.82
2022-09-06T17:21:58.150Z,6.55
2022-09-06T17:24:27.321Z,6.72
2022-09-06T17:26:56.712Z,7.05
2022-09-06T17:29:28.040Z,6.50
2022-09-06T17:31:56.465Z,7.07
2022-09-06T17:34:24.655Z,6.65
2022-09-06T17:36:53.737Z,5.95
2022-09-06T17:39:22.871Z,6.20
2022-09-06T17:41:54.176Z,6.70
2022-09-06T17:44:26.650Z,6.63
2022-09-06T17:47:12.641Z,6.78
2022-09-06T17:49:42.253Z,7.53
2022-09-06T17:52:10.717Z,6.90
2022-09-06T17:54:38.878Z,6.70
2022-09-06T17:57:07.079Z,7.10
2022-09-06T17:59:36.558Z,7.85
2022-09-06T18:02:05.884Z,7.05
2022-09-06T18:04:34.399Z,8.18
2022-09-06T18:07:02.554Z,7.18
2022-09-06T18:09:30.861Z,7.15
2022-09-06T18:11:59.162Z,7.90
2022-09-06T18:14:28.624Z,7.97
2022-09-06T18:16:58.332Z,7.55
2022-09-06T18:19:27.441Z,7.65
2022-09-06T18:21:57.091Z,7.95
2022-09-06T18:24:25.438Z,8.38
2022-09-06T18:26:53.580Z,7.50
2022-09-06T18:29:21.984Z,10.93
2022-09-06T18:31:53.422Z,8.82
2022-09-06T18:34:23.151Z,7.93
2022-09-06T18:36:51.353Z,8.98
2022-09-06T18:39:20.340Z,9.02
2022-09-06T18:42:11.034Z,8.15
2022-09-06T18:44:40.577Z,9.38
2022-09-06T18:47:12.141Z,9.88
2022-09-06T18:49:44.172Z,8.52
2022-09-06T18:52:12.637Z,9.23
2022-09-06T18:54:40.713Z,9.10
2022-09-06T18:57:08.975Z,9.60
2022-09-06T18:59:37.104Z,10.10
2022-09-06T19:02:05.296Z,9.07
2022-09-06T19:04:33.555Z,8.80
2022-09-06T19:07:04.890Z,9.57
2022-09-06T19:09:33.053Z,9.00
2022-09-06T19:12:01.411Z,8.98
2022-09-06T19:14:29.518Z,9.20
2022-09-06T19:16:57.654Z,9.07
2022-09-06T19:19:25.873Z,10.05
2022-09-06T19:21:54.007Z,8.82
2022-09-06T19:24:24.534Z,8.18
2022-09-06T19:26:55.146Z,7.05
2022-09-06T19:29:23.866Z,6.85
2022-09-06T19:31:52.933Z,6.45
2022-09-06T19:34:22.009Z,6.57
2022-09-06T19:36:52.053Z,6.57
2022-09-06T19:39:21.399Z,6.75
2022-09-06T19:41:51.183Z,6.03
2022-09-06T19:44:20.680Z,5.75
2022-09-06T19:46:49.220Z,5.95
2022-09-06T19:49:20.096Z,5.60
2022-09-06T19:51:50.800Z,5.90
2022-09-06T19:54:20.344Z,5.68
2022-09-06T19:56:50.198Z,5.38
2022-09-06T19:59:18.718Z,5.70
2022-09-06T20:01:47.741Z,5.65
2022-09-06T20:04:17.026Z,6.10
2022-09-06T20:06:46.026Z,6.35
2022-09-06T20:09:15.863Z,7.07
2022-09-06T20:11:44.558Z,6.35
2022-09-06T20:14:14.515Z,6.55
2022-09-06T20:16:43.205Z,6.38
2022-09-06T20:19:14.864Z,6.88
2022-09-06T20:21:43.998Z,6.90
2022-09-06T20:24:12.083Z,6.53
2022-09-06T20:26:40.399Z,6.97
2022-09-06T20:29:08.819Z,6.63
2022-09-06T20:31:39.212Z,7.07
2022-09-06T20:34:07.982Z,7.45
2022-09-06T20:36:36.711Z,7.97
2022-09-06T20:39:05.656Z,9.40
2022-09-06T20:41:34.756Z,8.90
2022-09-06T20:44:03.706Z,9.00
2022-09-06T20:46:35.068Z,9.30
2022-09-06T20:49:06.576Z,9.05
2022-09-06T20:51:38.523Z,10.52
2022-09-06T20:54:07.417Z,11.05
2022-09-06T20:56:38.640Z,11.07
2022-09-06T20:59:13.657Z,10.90
2022-09-06T21:01:44.514Z,11.27
2022-09-06T21:04:16.865Z,13.02
2022-09-06T21:06:45.843Z,13.25
2022-09-06T21:09:15.736Z,13.48
2022-09-06T21:11:45.178Z,13.80
2022-09-06T21:14:13.808Z,14.00
2022-09-06T21:16:42.141Z,13.93
2022-09-06T21:19:13.499Z,14.50
2022-09-06T21:21:42.283Z,15.57
2022-09-06T21:24:12.252Z,15.50
2022-09-06T21:26:42.831Z,15.23
2022-09-06T21:29:11.423Z,16.20
2022-09-06T21:31:39.641Z,15.18
2022-09-06T21:34:16.808Z,15.75
2022-09-06T21:36:46.827Z,15.95
2022-09-06T21:39:16.032Z,16.70
2022-09-06T21:41:45.774Z,16.17
2022-09-06T21:44:13.946Z,17.13
2022-09-06T21:46:43.231Z,16.67
2022-09-06T21:49:14.268Z,17.60
2022-09-06T21:51:42.961Z,18.17
2022-09-06T21:54:12.517Z,18.45
2022-09-06T21:56:41.172Z,19.40
2022-09-06T21:59:10.885Z,19.58
2022-09-06T22:01:43.165Z,20.75
2022-09-06T22:04:14.478Z,20.10
2022-09-06T22:06:42.628Z,21.83
2022-09-06T22:09:14.124Z,20.92
2022-09-06T22:11:45.360Z,21.92
2022-09-06T22:14:15.814Z,21.77
2022-09-06T22:16:44.236Z,22.77
2022-09-06T22:19:12.898Z,22.20
2022-09-06T22:21:41.363Z,23.13
2022-09-06T22:24:12.145Z,24.00
2022-09-06T22:26:42.958Z,26.63
2022-09-06T22:29:15.050Z,24.33
2022-09-06T22:31:43.877Z,25.15
2022-09-06T22:34:12.363Z,25.45
2022-09-06T22:36:40.593Z,25.05
2022-09-06T22:39:09.496Z,26.20
2022-09-06T22:41:37.684Z,26.40
2022-09-06T22:44:07.656Z,27.55
2022-09-06T22:46:37.001Z,27.13
2022-09-06T22:49:05.440Z,27.27
2022-09-06T22:51:34.110Z,27.70
2022-09-06T22:54:02.477Z,27.35
2022-09-06T22:56:30.587Z,28.65
2022-09-06T22:59:00.801Z,27.05
2022-09-06T23:01:32.607Z,30.42
2022-09-06T23:04:01.122Z,29.67
2022-09-06T23:06:29.326Z,29.58
2022-09-06T23:08:57.482Z,28.58
2022-09-06T23:11:25.902Z,28.23
2022-09-06T23:13:57.570Z,31.30
2022-09-06T23:16:27.038Z,29.33
2022-09-06T23:18:57.403Z,31.02
2022-09-06T23:21:27.448Z,30.40
2022-09-06T23:23:57.763Z,29.95
2022-09-06T23:26:30.321Z,30.77
2022-09-06T23:28:58.587Z,30.73
2022-09-06T23:31:31.329Z,31.55
2022-09-06T23:34:02.793Z,29.70
2022-09-06T23:36:32.525Z,31.55
2022-09-06T23:39:02.113Z,30.80
2022-09-06T23:41:30.454Z,31.23
2022-09-06T23:43:58.617Z,32.85
2022-09-06T23:46:27.581Z,31.50
2022-09-06T23:48:55.806Z,30.58
2022-09-06T23:51:25.396Z,35.90
2022-09-06T23:53:53.845Z,32.75
2022-09-06T23:56:22.406Z,33.03
2022-09-06T23:58:50.560Z,33.97
